Aérodrome :
LOGIN :

S'inscrire | Disclaimer

   EN    FR    IT 

 










Légende :    VFR   VFR Marginal   IFR   IFR Intensif   IFR Très Intensif
Visi : 
Plafond : 
>= 8 km
>= 3000ft
5 à 8 km
1000 à 3000 ft
1500m à 5 km
500 à 1000 ft
800 à 1500m
200 à 500 ft
< 800m
< 200 ft
Symboles :   Orages  Brouillard  Fortes neiges  Fortes précipitations  Vent > 20 kt
SIGMETs :   Divers  Orages  Givrage  Turbulence  Onde Orograph.  Cendres Volcan.






- Altitude de l'aérodrome : 1830 ft


EBLB - Butgenbach Elsenborn

DERNIER METAR :
  • 270155Z AUTO 19009KT 8000 OVC005/// 04/04 Q1012 YLO

METARs EXPIRÉS :
  • 270125Z AUTO 20009KT 9999 OVC005/// 04/03 Q1012 YLO
  • 270055Z AUTO 20009KT 8000 OVC005/// 04/03 Q1012 YLO
  • 270025Z AUTO 21008KT 6000 BKN005/// BKN200/// 04/03 Q1013 YLO
  • 262355Z AUTO 20007KT 8000 SCT005/// BKN200/// 04/03 Q1013 YLO
  • 262325Z AUTO 21008KT 7000 SCT006/// BKN200/// 04/03 Q1013 YLO

Prévision TAF périmée.



MET'MAP, la Météo Aéronautique d'un coup d'oeil ! - Copyright ORBIFLY Décembre 2007 - Disclaimer

ORBIFLY MET'MAP TEAM :

Programmation & Développement : Alexandra Zaïnal
Sur une idée originale de : Baudouin d'Aumeries
Assistance à la programmation : Marc-Olivier Méhu
Soutien technique & logistique : Manuel Goepfert

Contact : metmap@orbifly.com




SOURCES & CREDITS :

   NOAA